createdAt,value
2018-01-29T00:01:32.798Z,9.10
2018-01-29T00:04:01.171Z,9.00
2018-01-29T00:06:28.777Z,9.00
2018-01-29T00:08:56.447Z,9.00
2018-01-29T00:11:24.826Z,9.00
2018-01-29T00:13:52.430Z,9.00
2018-01-29T00:16:20.067Z,9.10
2018-01-29T00:18:47.675Z,9.10
2018-01-29T00:21:15.281Z,9.00
2018-01-29T00:23:42.926Z,9.00
2018-01-29T00:26:10.539Z,9.10
2018-01-29T00:28:38.201Z,9.10
2018-01-29T00:31:05.857Z,9.00
2018-01-29T00:33:33.461Z,9.00
2018-01-29T00:36:01.070Z,9.10
2018-01-29T00:38:29.505Z,9.00
2018-01-29T00:40:57.107Z,9.00
2018-01-29T00:43:24.741Z,9.00
2018-01-29T00:45:52.418Z,9.00
2018-01-29T00:48:20.032Z,9.00
2018-01-29T00:50:47.641Z,9.00
2018-01-29T00:53:15.293Z,8.90
2018-01-29T00:55:42.923Z,9.00
2018-01-29T00:58:10.537Z,9.00
2018-01-29T01:00:38.199Z,9.00
2018-01-29T01:03:05.894Z,8.90
2018-01-29T01:05:34.310Z,8.90
2018-01-29T01:08:01.964Z,8.90
2018-01-29T01:10:30.334Z,9.00
2018-01-29T01:12:57.946Z,8.90
2018-01-29T01:15:26.362Z,8.90
2018-01-29T01:17:53.972Z,8.90
2018-01-29T01:20:21.592Z,9.00
2018-01-29T01:22:49.244Z,9.00
2018-01-29T01:25:17.634Z,9.00
2018-01-29T01:27:46.065Z,8.90
2018-01-29T01:30:13.781Z,8.90
2018-01-29T01:32:41.394Z,8.90
2018-01-29T01:35:09.777Z,8.90
2018-01-29T01:37:38.197Z,8.90
2018-01-29T01:40:05.808Z,8.90
2018-01-29T01:42:33.417Z,8.90
2018-01-29T01:45:01.847Z,8.90
2018-01-29T01:47:29.461Z,8.90
2018-01-29T01:49:57.065Z,9.00
2018-01-29T01:52:24.731Z,9.00
2018-01-29T01:54:53.111Z,9.00
2018-01-29T01:57:20.712Z,8.90
2018-01-29T01:59:48.354Z,8.90
2018-01-29T02:02:15.957Z,8.90
2018-01-29T02:04:43.566Z,9.00
2018-01-29T02:07:11.213Z,8.90
2018-01-29T02:09:38.822Z,8.90
2018-01-29T02:12:06.428Z,8.90
2018-01-29T02:14:34.834Z,9.00
2018-01-29T02:17:03.209Z,9.00
2018-01-29T02:19:30.840Z,8.90
2018-01-29T02:21:58.483Z,9.00
2018-01-29T02:24:26.092Z,9.00
2018-01-29T02:26:53.704Z,9.00
2018-01-29T02:29:21.347Z,9.00
2018-01-29T02:31:48.958Z,9.00
2018-01-29T02:34:17.340Z,9.00
2018-01-29T02:36:44.975Z,8.90
2018-01-29T02:39:12.587Z,9.10
2018-01-29T02:41:40.200Z,9.10
2018-01-29T02:44:07.854Z,9.00
2018-01-29T02:46:36.230Z,9.00
2018-01-29T02:49:03.842Z,9.00
2018-01-29T02:51:31.485Z,9.00
2018-01-29T02:53:59.867Z,9.00
2018-01-29T02:56:27.482Z,8.90
2018-01-29T02:58:55.128Z,9.00
2018-01-29T03:01:23.501Z,9.00
2018-01-29T03:03:51.111Z,8.90
2018-01-29T03:06:18.762Z,8.90
2018-01-29T03:08:47.141Z,8.90
2018-01-29T03:11:14.758Z,8.90
2018-01-29T03:13:42.402Z,8.90
2018-01-29T03:16:10.776Z,8.90
2018-01-29T03:18:38.386Z,8.80
2018-01-29T03:21:06.789Z,8.90
2018-01-29T03:23:34.401Z,8.90
2018-01-29T03:26:02.015Z,9.00
2018-01-29T03:28:30.433Z,8.90
2018-01-29T03:30:58.038Z,8.80
2018-01-29T03:33:25.648Z,8.90
2018-01-29T03:35:54.049Z,8.90
2018-01-29T03:38:22.425Z,9.00
2018-01-29T03:40:50.033Z,8.90
2018-01-29T03:43:17.678Z,9.00
2018-01-29T03:45:46.051Z,8.90
2018-01-29T03:48:13.659Z,8.90
2018-01-29T03:50:42.070Z,9.00
2018-01-29T03:53:09.677Z,8.90
2018-01-29T03:55:37.280Z,9.00
2018-01-29T03:58:05.700Z,9.00
2018-01-29T04:00:33.436Z,9.00
2018-01-29T04:03:01.047Z,9.00
2018-01-29T04:05:28.689Z,9.00
2018-01-29T04:07:56.298Z,9.00
2018-01-29T04:10:23.912Z,9.10
2018-01-29T04:12:51.557Z,9.10
2018-01-29T04:15:19.162Z,9.00
2018-01-29T04:17:46.767Z,9.00
2018-01-29T04:20:14.405Z,9.00
2018-01-29T04:22:42.027Z,9.00
2018-01-29T04:25:10.389Z,9.00
2018-01-29T04:27:38.033Z,9.00
2018-01-29T04:30:05.691Z,9.10
2018-01-29T04:32:33.358Z,9.20
2018-01-29T04:35:01.759Z,9.10
2018-01-29T04:37:29.361Z,9.10
2018-01-29T04:39:56.956Z,9.10
2018-01-29T04:42:24.594Z,9.10
2018-01-29T04:44:52.196Z,9.10
2018-01-29T04:47:19.814Z,9.10
2018-01-29T04:49:47.466Z,9.10
2018-01-29T04:52:15.840Z,9.10
2018-01-29T04:54:43.449Z,9.10
2018-01-29T04:57:11.091Z,9.10
2018-01-29T04:59:38.700Z,9.10
2018-01-29T05:02:06.314Z,9.10
2018-01-29T05:04:33.956Z,9.10
2018-01-29T05:07:01.591Z,9.10
2018-01-29T05:09:29.206Z,9.10
2018-01-29T05:11:56.852Z,9.10
2018-01-29T05:14:25.232Z,9.10
2018-01-29T05:16:52.847Z,9.10
2018-01-29T05:19:20.496Z,9.10
2018-01-29T05:21:48.856Z,9.10
2018-01-29T05:24:16.460Z,9.00
2018-01-29T05:26:44.872Z,9.00
2018-01-29T05:29:12.476Z,9.00
2018-01-29T05:31:40.093Z,9.00
2018-01-29T05:34:08.517Z,8.90
2018-01-29T05:36:39.549Z,8.90
2018-01-29T05:39:07.957Z,9.00
2018-01-29T05:41:35.581Z,8.90
2018-01-29T05:44:03.201Z,9.00
2018-01-29T05:46:30.842Z,9.00
2018-01-29T05:48:58.446Z,9.00
2018-01-29T05:51:26.220Z,9.00
2018-01-29T05:53:53.872Z,9.00
2018-01-29T05:56:21.483Z,9.00
2018-01-29T05:58:49.098Z,9.00
2018-01-29T06:01:16.737Z,9.00
2018-01-29T06:03:44.344Z,9.00
2018-01-29T06:06:11.957Z,8.90
2018-01-29T06:08:40.359Z,8.80
2018-01-29T06:11:07.968Z,8.80
2018-01-29T06:13:35.569Z,8.80
2018-01-29T06:16:03.211Z,8.80
2018-01-29T06:18:30.817Z,8.80
2018-01-29T06:20:58.641Z,8.80
2018-01-29T06:23:26.284Z,8.80
2018-01-29T06:25:54.648Z,8.90
2018-01-29T06:28:22.252Z,8.80
2018-01-29T06:30:50.658Z,8.80
2018-01-29T06:33:18.276Z,8.80
2018-01-29T06:35:45.945Z,8.90
2018-01-29T06:38:13.592Z,8.90
2018-01-29T06:40:41.192Z,8.90
2018-01-29T06:43:08.793Z,8.80
2018-01-29T06:45:36.434Z,8.90
2018-01-29T06:48:04.049Z,8.90
2018-01-29T06:50:31.647Z,8.90
2018-01-29T06:52:59.289Z,8.90
2018-01-29T06:55:26.894Z,8.90
2018-01-29T06:57:55.277Z,8.90
2018-01-29T07:00:23.684Z,8.90
2018-01-29T07:02:51.285Z,8.90
2018-01-29T07:05:18.967Z,8.90
2018-01-29T07:07:46.641Z,8.90
2018-01-29T07:10:14.241Z,8.90
2018-01-29T07:12:41.843Z,8.90
2018-01-29T07:15:10.259Z,8.90
2018-01-29T07:17:37.860Z,8.90
2018-01-29T07:20:05.461Z,9.00
2018-01-29T07:22:33.097Z,9.00
2018-01-29T07:25:00.692Z,9.00
2018-01-29T07:27:28.305Z,8.90
2018-01-29T07:29:56.708Z,9.00
2018-01-29T07:32:24.305Z,8.90
2018-01-29T07:34:51.913Z,9.10
2018-01-29T07:37:19.561Z,9.10
2018-01-29T07:39:47.156Z,9.00
2018-01-29T07:42:14.754Z,9.10
2018-01-29T07:44:43.161Z,9.10
2018-01-29T07:47:11.536Z,9.00
2018-01-29T07:49:39.910Z,9.10
2018-01-29T07:52:07.554Z,9.00
2018-01-29T07:54:35.157Z,9.10
2018-01-29T07:57:02.769Z,9.10
2018-01-29T07:59:30.405Z,9.10
2018-01-29T08:01:58.012Z,9.10
2018-01-29T08:04:26.395Z,9.20
2018-01-29T08:06:54.801Z,9.20
2018-01-29T08:09:22.415Z,9.10
2018-01-29T08:11:50.018Z,9.20
2018-01-29T08:14:17.657Z,9.20
2018-01-29T08:16:46.704Z,9.20
2018-01-29T08:19:14.313Z,9.20
2018-01-29T08:21:41.957Z,9.30
2018-01-29T08:24:10.327Z,9.40
2018-01-29T08:26:37.937Z,9.30
2018-01-29T08:29:06.343Z,9.40
2018-01-29T08:31:33.949Z,9.40
2018-01-29T08:34:01.554Z,9.50
2018-01-29T08:36:29.198Z,9.50
2018-01-29T08:38:56.800Z,9.60
2018-01-29T08:41:25.170Z,9.50
2018-01-29T08:43:52.817Z,9.50
2018-01-29T08:46:20.425Z,9.50
2018-01-29T08:48:48.038Z,9.50
2018-01-29T08:51:16.448Z,9.50
2018-01-29T08:53:44.058Z,9.50
2018-01-29T08:56:11.671Z,9.50
2018-01-29T08:58:39.326Z,9.50
2018-01-29T09:01:06.929Z,9.50
2018-01-29T09:03:34.534Z,9.60
2018-01-29T09:06:02.213Z,9.60
2018-01-29T09:08:29.829Z,9.50
2018-01-29T09:10:58.282Z,9.60
2018-01-29T09:13:25.921Z,9.50
2018-01-29T09:15:53.531Z,9.60
2018-01-29T09:18:21.137Z,9.60
2018-01-29T09:20:48.776Z,9.60
2018-01-29T09:23:16.380Z,9.70
2018-01-29T09:25:43.985Z,9.70
2018-01-29T09:28:11.621Z,9.60
2018-01-29T09:30:39.226Z,9.70
2018-01-29T09:33:07.594Z,9.70
2018-01-29T09:35:35.230Z,9.70
2018-01-29T09:38:02.910Z,9.80
2018-01-29T09:40:30.513Z,9.70
2018-01-29T09:42:58.149Z,9.70
2018-01-29T09:45:25.756Z,9.70
2018-01-29T09:47:53.377Z,9.70
2018-01-29T09:50:21.025Z,9.80
2018-01-29T09:52:49.397Z,9.80
2018-01-29T09:55:17.001Z,9.70
2018-01-29T09:57:45.410Z,9.70
2018-01-29T10:00:13.017Z,9.60
2018-01-29T10:02:40.629Z,9.70
2018-01-29T10:05:09.040Z,9.80
2018-01-29T10:07:36.637Z,9.80
2018-01-29T10:10:04.323Z,9.70
2018-01-29T10:12:31.978Z,9.70
2018-01-29T10:14:59.582Z,9.70
2018-01-29T10:17:27.177Z,9.70
2018-01-29T10:19:54.818Z,9.80
2018-01-29T10:22:22.422Z,9.80
2018-01-29T10:24:50.034Z,9.80
2018-01-29T10:27:17.669Z,9.80
2018-01-29T10:29:45.289Z,9.80
2018-01-29T10:32:12.893Z,9.80
2018-01-29T10:34:40.578Z,9.90
2018-01-29T10:37:09.985Z,9.90
2018-01-29T10:39:37.628Z,9.90
2018-01-29T10:42:05.269Z,9.90
2018-01-29T10:44:35.111Z,10.00
2018-01-29T10:47:03.489Z,9.90
2018-01-29T10:49:32.877Z,9.90
2018-01-29T10:52:00.484Z,9.90
2018-01-29T10:54:28.850Z,10.00
2018-01-29T10:56:57.289Z,9.90
2018-01-29T10:59:24.909Z,9.80
2018-01-29T11:01:58.337Z,10.00
2018-01-29T11:04:25.952Z,10.00
2018-01-29T11:06:53.569Z,10.10
2018-01-29T11:09:32.421Z,10.00
2018-01-29T11:12:00.035Z,10.00
2018-01-29T11:14:27.641Z,10.00
2018-01-29T11:16:55.309Z,10.10
2018-01-29T11:19:22.910Z,10.00
2018-01-29T11:21:50.516Z,10.10
2018-01-29T11:24:18.929Z,10.20
2018-01-29T11:26:46.538Z,10.20
2018-01-29T11:29:14.149Z,10.30
2018-01-29T11:31:42.566Z,10.30
2018-01-29T11:34:10.168Z,10.30
2018-01-29T11:36:37.774Z,10.40
2018-01-29T11:39:05.475Z,10.40
2018-01-29T11:41:33.817Z,10.40
2018-01-29T11:44:01.425Z,10.40
2018-01-29T11:46:29.842Z,10.50
2018-01-29T11:48:57.453Z,10.40
2018-01-29T11:51:25.061Z,10.50
2018-01-29T11:53:53.508Z,10.40
2018-01-29T11:56:21.110Z,10.30
2018-01-29T11:58:48.725Z,10.40
2018-01-29T12:01:16.365Z,10.30
2018-01-29T12:03:43.983Z,10.30
2018-01-29T12:06:11.589Z,10.40
2018-01-29T12:08:39.229Z,10.50
2018-01-29T12:11:06.858Z,10.50
2018-01-29T12:13:34.460Z,10.50
2018-01-29T12:16:02.109Z,10.50
2018-01-29T12:18:29.745Z,10.40
2018-01-29T12:21:01.865Z,10.40
2018-01-29T12:23:32.065Z,10.40
2018-01-29T12:25:59.676Z,10.40
2018-01-29T12:28:28.126Z,10.40
2018-01-29T12:30:55.730Z,10.40
2018-01-29T12:33:23.333Z,10.40
2018-01-29T12:35:51.736Z,10.40
2018-01-29T12:38:19.348Z,10.40
2018-01-29T12:40:48.716Z,10.50
2018-01-29T12:43:16.357Z,10.40
2018-01-29T12:45:43.979Z,10.40
2018-01-29T12:48:11.592Z,10.50
2018-01-29T12:50:39.245Z,10.50
2018-01-29T12:53:06.866Z,10.50
2018-01-29T12:55:34.501Z,10.50
2018-01-29T12:58:02.150Z,10.50
2018-01-29T13:00:30.585Z,10.50
2018-01-29T13:02:58.205Z,10.50
2018-01-29T13:05:25.913Z,10.50
2018-01-29T13:07:53.529Z,10.60
2018-01-29T13:10:21.133Z,10.70
2018-01-29T13:12:49.573Z,10.80
2018-01-29T13:15:17.176Z,10.80
2018-01-29T13:17:46.688Z,11.10
2018-01-29T13:20:14.430Z,11.00
2018-01-29T13:22:42.036Z,11.10
2018-01-29T13:25:10.421Z,10.90
2018-01-29T13:27:38.068Z,10.80
2018-01-29T13:30:05.676Z,10.80
2018-01-29T13:32:33.280Z,10.80
2018-01-29T13:35:00.921Z,10.80
2018-01-29T13:37:28.553Z,10.80
2018-01-29T13:39:56.164Z,10.70
2018-01-29T13:42:23.815Z,10.70
2018-01-29T13:44:51.420Z,10.60
2018-01-29T13:47:19.033Z,10.60
2018-01-29T13:49:46.727Z,10.60
2018-01-29T13:52:15.264Z,10.60
2018-01-29T13:54:42.874Z,10.60
2018-01-29T13:57:10.517Z,10.50
2018-01-29T13:59:38.893Z,10.50
2018-01-29T14:02:06.505Z,10.40
2018-01-29T14:04:34.145Z,10.40
2018-01-29T14:07:08.374Z,10.40
2018-01-29T14:09:36.021Z,10.40
2018-01-29T14:12:03.688Z,10.40
2018-01-29T14:14:31.304Z,10.40
2018-01-29T14:16:59.733Z,10.40
2018-01-29T14:19:27.350Z,10.40
2018-01-29T14:21:54.956Z,10.40
2018-01-29T14:24:23.370Z,10.40
2018-01-29T14:26:50.988Z,10.30
2018-01-29T14:29:18.608Z,10.40
2018-01-29T14:31:46.253Z,10.50
2018-01-29T14:34:13.857Z,10.50
2018-01-29T14:36:41.469Z,10.40
2018-01-29T14:39:09.131Z,10.40
2018-01-29T14:41:36.743Z,10.40
2018-01-29T14:44:04.361Z,10.40
2018-01-29T14:46:32.000Z,10.40
2018-01-29T14:48:59.633Z,10.40
2018-01-29T14:51:27.240Z,10.40
2018-01-29T14:53:54.882Z,10.40
2018-01-29T14:56:22.489Z,10.40
2018-01-29T14:58:50.129Z,10.40
2018-01-29T15:01:17.773Z,10.40
2018-01-29T15:03:45.381Z,10.40
2018-01-29T15:06:12.988Z,10.40
2018-01-29T15:08:40.632Z,10.30
2018-01-29T15:11:08.244Z,10.30
2018-01-29T15:13:36.678Z,10.30
2018-01-29T15:16:04.320Z,10.20
2018-01-29T15:18:32.700Z,10.20
2018-01-29T15:21:01.071Z,10.20
2018-01-29T15:23:28.827Z,10.20
2018-01-29T15:25:56.442Z,10.20
2018-01-29T15:28:24.081Z,10.20
2018-01-29T15:30:51.720Z,10.20
2018-01-29T15:33:19.333Z,10.20
2018-01-29T15:35:46.941Z,10.20
2018-01-29T15:38:15.366Z,10.10
2018-01-29T15:40:42.981Z,10.10
2018-01-29T15:43:10.597Z,10.10
2018-01-29T15:45:38.249Z,10.10
2018-01-29T15:48:06.632Z,10.20
2018-01-29T15:50:34.245Z,10.10
2018-01-29T15:53:01.896Z,10.10
2018-01-29T15:55:30.275Z,10.10
2018-01-29T15:57:57.876Z,10.10
2018-01-29T16:00:25.517Z,10.00
2018-01-29T16:02:53.141Z,10.00
2018-01-29T16:05:20.759Z,10.00
2018-01-29T16:07:48.414Z,10.00
2018-01-29T16:10:16.054Z,10.00
2018-01-29T16:12:43.669Z,10.10
2018-01-29T16:15:11.321Z,10.00
2018-01-29T16:17:38.944Z,10.00
2018-01-29T16:20:06.554Z,10.00
2018-01-29T16:22:34.211Z,10.00
2018-01-29T16:25:01.911Z,10.00
2018-01-29T16:27:29.561Z,10.00
2018-01-29T16:29:58.030Z,10.00
2018-01-29T16:32:25.653Z,9.90
2018-01-29T16:34:53.266Z,10.00
2018-01-29T16:37:20.917Z,10.00
2018-01-29T16:39:48.551Z,10.00
2018-01-29T16:42:16.930Z,9.90
2018-01-29T16:44:45.349Z,9.90
2018-01-29T16:47:12.958Z,9.80
2018-01-29T16:49:40.573Z,9.90
2018-01-29T16:52:09.004Z,9.80
2018-01-29T16:54:36.612Z,9.80
2018-01-29T16:57:04.245Z,9.80
2018-01-29T16:59:31.873Z,9.80
2018-01-29T17:01:59.483Z,9.80
2018-01-29T17:04:27.092Z,9.80
2018-01-29T17:06:54.734Z,9.70
2018-01-29T17:09:22.342Z,9.70
2018-01-29T17:11:49.949Z,9.70
2018-01-29T17:14:18.353Z,9.70
2018-01-29T17:16:46.745Z,9.70
2018-01-29T17:19:15.121Z,9.70
2018-01-29T17:21:43.533Z,9.70
2018-01-29T17:24:11.905Z,9.60
2018-01-29T17:26:40.286Z,9.70
2018-01-29T17:29:07.989Z,9.60
2018-01-29T17:31:35.577Z,9.60
2018-01-29T17:34:03.181Z,9.60
2018-01-29T17:36:30.870Z,9.60
2018-01-29T17:38:58.494Z,9.60
2018-01-29T17:41:26.098Z,9.60
2018-01-29T17:43:53.749Z,9.60
2018-01-29T17:46:21.356Z,9.60
2018-01-29T17:48:50.413Z,9.60
2018-01-29T17:51:18.770Z,9.70
2018-01-29T17:53:46.733Z,9.70
2018-01-29T17:56:14.328Z,9.60
2018-01-29T17:58:41.965Z,9.60
2018-01-29T18:01:09.781Z,9.60
2018-01-29T18:03:37.385Z,9.60
2018-01-29T18:06:06.133Z,9.60
2018-01-29T18:08:33.780Z,9.50
2018-01-29T18:11:01.389Z,9.60
2018-01-29T18:13:29.037Z,9.60
2018-01-29T18:15:56.665Z,9.60
2018-01-29T18:18:25.049Z,9.60
2018-01-29T18:20:52.696Z,9.50
2018-01-29T18:23:20.301Z,9.60
2018-01-29T18:25:48.674Z,9.60
2018-01-29T18:28:16.316Z,9.50
2018-01-29T18:30:43.930Z,9.60
2018-01-29T18:33:11.532Z,9.60
2018-01-29T18:35:39.948Z,9.50
2018-01-29T18:38:07.645Z,9.50
2018-01-29T18:40:35.272Z,9.50
2018-01-29T18:43:03.686Z,9.50
2018-01-29T18:45:31.297Z,9.50
2018-01-29T18:47:58.896Z,9.50
2018-01-29T18:50:27.306Z,9.50
2018-01-29T18:52:56.023Z,9.50
2018-01-29T18:55:23.626Z,9.50
2018-01-29T18:57:51.265Z,9.50
2018-01-29T19:00:18.908Z,9.60
2018-01-29T19:02:46.510Z,9.60
2018-01-29T19:05:14.148Z,9.60
2018-01-29T19:07:41.764Z,9.60
2018-01-29T19:10:09.374Z,9.60
2018-01-29T19:12:37.018Z,9.60
2018-01-29T19:15:04.612Z,9.60
2018-01-29T19:17:32.216Z,9.50
2018-01-29T19:19:59.861Z,9.50
2018-01-29T19:22:27.462Z,9.50
2018-01-29T19:24:55.073Z,9.50
2018-01-29T19:27:22.716Z,9.50
2018-01-29T19:29:51.101Z,9.50
2018-01-29T19:32:18.706Z,9.50
2018-01-29T19:34:46.422Z,9.50
2018-01-29T19:37:14.029Z,9.60
2018-01-29T19:39:42.757Z,9.60
2018-01-29T19:42:10.388Z,9.60
2018-01-29T19:44:39.561Z,9.60
2018-01-29T19:47:07.161Z,9.60
2018-01-29T19:49:34.797Z,9.60
2018-01-29T19:52:04.244Z,9.60
2018-01-29T19:54:32.405Z,9.60
2018-01-29T19:57:00.054Z,9.60
2018-01-29T19:59:28.420Z,9.60
2018-01-29T20:01:57.811Z,9.60
2018-01-29T20:04:25.468Z,9.60
2018-01-29T20:06:53.070Z,9.60
2018-01-29T20:09:20.669Z,9.60
2018-01-29T20:11:48.314Z,9.60
2018-01-29T20:14:17.139Z,9.50
2018-01-29T20:16:45.096Z,9.50
2018-01-29T20:19:12.834Z,9.40
2018-01-29T20:21:40.437Z,9.30
2018-01-29T20:24:08.965Z,9.30
2018-01-29T20:26:36.598Z,9.20
2018-01-29T20:29:04.211Z,9.20
2018-01-29T20:31:32.833Z,9.20
2018-01-29T20:34:02.461Z,9.20
2018-01-29T20:36:30.065Z,9.20
2018-01-29T20:38:57.670Z,9.20
2018-01-29T20:41:25.313Z,9.20
2018-01-29T20:43:53.253Z,9.20
2018-01-29T20:46:23.111Z,9.20
2018-01-29T20:48:50.754Z,9.10
2018-01-29T20:51:19.134Z,9.20
2018-01-29T20:53:47.517Z,9.20
2018-01-29T20:56:16.725Z,9.10
2018-01-29T20:58:44.340Z,9.20
2018-01-29T21:01:11.953Z,9.30
2018-01-29T21:03:39.594Z,9.30
2018-01-29T21:06:08.013Z,9.30
2018-01-29T21:08:36.358Z,9.40
2018-01-29T21:11:08.610Z,9.30
2018-01-29T21:13:36.214Z,9.30
2018-01-29T21:18:53.961Z,9.30
2018-01-29T21:21:21.609Z,9.30
2018-01-29T21:23:49.221Z,9.30
2018-01-29T21:26:17.694Z,9.30
2018-01-29T21:28:46.918Z,9.30
2018-01-29T21:31:14.529Z,9.20
2018-01-29T21:33:42.128Z,9.20
2018-01-29T21:36:15.306Z,9.20
2018-01-29T21:38:43.354Z,9.10
2018-01-29T21:41:12.325Z,9.10
2018-01-29T21:43:42.789Z,9.00
2018-01-29T21:46:10.393Z,8.90
2018-01-29T21:48:44.371Z,8.90
2018-01-29T21:51:11.972Z,8.90
2018-01-29T21:53:39.572Z,8.90
2018-01-29T21:56:13.767Z,8.90
2018-01-29T21:58:42.029Z,8.90
2018-01-29T22:01:10.193Z,8.90
2018-01-29T22:03:37.828Z,8.90
2018-01-29T22:06:09.923Z,8.90
2018-01-29T22:08:38.337Z,9.00
2018-01-29T22:11:06.665Z,8.90
2018-01-29T22:13:34.267Z,9.00
2018-01-29T22:16:02.695Z,9.00
2018-01-29T22:18:30.313Z,9.00
2018-01-29T22:21:00.972Z,9.00
2018-01-29T22:23:28.621Z,9.00
2018-01-29T22:25:56.233Z,9.10
2018-01-29T22:28:24.612Z,9.10
2018-01-29T22:30:52.261Z,9.10
2018-01-29T22:33:19.876Z,9.10
2018-01-29T22:35:48.249Z,9.10
2018-01-29T22:38:15.899Z,9.10
2018-01-29T22:40:43.505Z,9.20
2018-01-29T22:43:11.873Z,9.10
2018-01-29T22:45:41.294Z,9.00
2018-01-29T22:48:08.905Z,8.90
2018-01-29T22:50:36.518Z,8.60
2018-01-29T22:53:04.169Z,8.40
2018-01-29T22:55:31.767Z,8.30
2018-01-29T22:57:59.373Z,8.10
2018-01-29T23:00:27.021Z,7.90
2018-01-29T23:02:54.634Z,7.70
2018-01-29T23:05:22.996Z,7.50
2018-01-29T23:07:52.384Z,7.50
2018-01-29T23:10:22.116Z,7.40
2018-01-29T23:12:49.712Z,7.20
2018-01-29T23:15:17.353Z,7.10
2018-01-29T23:17:44.959Z,7.10
2018-01-29T23:20:12.565Z,7.00
2018-01-29T23:22:40.972Z,6.90
2018-01-29T23:25:08.576Z,6.90
2018-01-29T23:27:36.172Z,7.00
2018-01-29T23:30:03.841Z,6.90
2018-01-29T23:32:31.445Z,6.80
2018-01-29T23:34:59.890Z,6.60
2018-01-29T23:37:27.576Z,6.50
2018-01-29T23:39:55.181Z,6.50
2018-01-29T23:42:23.556Z,6.50
2018-01-29T23:44:51.188Z,6.50
2018-01-29T23:47:18.796Z,6.60
2018-01-29T23:49:46.404Z,6.60
2018-01-29T23:52:14.821Z,6.60
2018-01-29T23:54:42.430Z,6.60
2018-01-29T23:57:10.041Z,6.60
2018-01-29T23:59:38.474Z,6.60
